sensor_id;sensor_type;location;lat;lon;timestamp;P1;durP1;ratioP1;P2;durP2;ratioP2
77350;SDS011;66420;50.246;14.320;2024-01-06T00:00:59;52.08;;;19.80;;
77350;SDS011;66420;50.246;14.320;2024-01-06T00:03:44;53.28;;;21.10;;
77350;SDS011;66420;50.246;14.320;2024-01-06T00:06:28;57.58;;;21.05;;
77350;SDS011;66420;50.246;14.320;2024-01-06T00:09:13;50.05;;;18.38;;
77350;SDS011;66420;50.246;14.320;2024-01-06T00:11:57;52.45;;;20.15;;
77350;SDS011;66420;50.246;14.320;2024-01-06T00:14:42;52.95;;;20.98;;
77350;SDS011;66420;50.246;14.320;2024-01-06T00:17:29;57.22;;;22.70;;
77350;SDS011;66420;50.246;14.320;2024-01-06T00:20:14;50.80;;;20.25;;
77350;SDS011;66420;50.246;14.320;2024-01-06T00:22:59;59.22;;;22.58;;
77350;SDS011;66420;50.246;14.320;2024-01-06T00:25:44;52.78;;;21.25;;
77350;SDS011;66420;50.246;14.320;2024-01-06T00:28:28;51.08;;;21.33;;
77350;SDS011;66420;50.246;14.320;2024-01-06T00:31:14;50.42;;;22.02;;
77350;SDS011;66420;50.246;14.320;2024-01-06T00:34:01;52.03;;;22.05;;
77350;SDS011;66420;50.246;14.320;2024-01-06T00:36:46;48.05;;;21.00;;
77350;SDS011;66420;50.246;14.320;2024-01-06T00:39:30;49.38;;;19.80;;
77350;SDS011;66420;50.246;14.320;2024-01-06T00:42:15;54.05;;;21.13;;
77350;SDS011;66420;50.246;14.320;2024-01-06T00:45:00;49.25;;;20.55;;
77350;SDS011;66420;50.246;14.320;2024-01-06T00:47:45;57.20;;;23.27;;
77350;SDS011;66420;50.246;14.320;2024-01-06T00:50:29;56.08;;;23.02;;
77350;SDS011;66420;50.246;14.320;2024-01-06T00:53:14;62.15;;;22.48;;
77350;SDS011;66420;50.246;14.320;2024-01-06T00:55:59;54.08;;;21.67;;
77350;SDS011;66420;50.246;14.320;2024-01-06T00:58:44;64.20;;;24.02;;
77350;SDS011;66420;50.246;14.320;2024-01-06T01:01:28;62.55;;;21.77;;
77350;SDS011;66420;50.246;14.320;2024-01-06T01:04:13;61.30;;;24.52;;
77350;SDS011;66420;50.246;14.320;2024-01-06T01:06:57;62.17;;;22.95;;
77350;SDS011;66420;50.246;14.320;2024-01-06T01:09:42;54.80;;;21.20;;
77350;SDS011;66420;50.246;14.320;2024-01-06T01:12:27;57.17;;;20.95;;
77350;SDS011;66420;50.246;14.320;2024-01-06T01:15:12;52.47;;;21.08;;
77350;SDS011;66420;50.246;14.320;2024-01-06T01:17:57;51.42;;;21.48;;
77350;SDS011;66420;50.246;14.320;2024-01-06T01:20:42;49.03;;;20.63;;
77350;SDS011;66420;50.246;14.320;2024-01-06T01:23:26;53.67;;;20.52;;
77350;SDS011;66420;50.246;14.320;2024-01-06T01:26:11;50.80;;;21.63;;
77350;SDS011;66420;50.246;14.320;2024-01-06T01:28:56;65.60;;;22.02;;
77350;SDS011;66420;50.246;14.320;2024-01-06T01:31:41;58.47;;;21.98;;
77350;SDS011;66420;50.246;14.320;2024-01-06T01:34:25;54.42;;;20.90;;
77350;SDS011;66420;50.246;14.320;2024-01-06T01:37:11;50.75;;;21.90;;
77350;SDS011;66420;50.246;14.320;2024-01-06T01:39:55;54.60;;;20.63;;
77350;SDS011;66420;50.246;14.320;2024-01-06T01:42:41;47.97;;;20.05;;
77350;SDS011;66420;50.246;14.320;2024-01-06T01:45:27;49.20;;;20.45;;
77350;SDS011;66420;50.246;14.320;2024-01-06T01:48:12;44.33;;;19.05;;
77350;SDS011;66420;50.246;14.320;2024-01-06T01:50:57;46.00;;;19.92;;
77350;SDS011;66420;50.246;14.320;2024-01-06T01:53:42;42.28;;;18.83;;
77350;SDS011;66420;50.246;14.320;2024-01-06T01:56:27;53.00;;;21.65;;
77350;SDS011;66420;50.246;14.320;2024-01-06T01:59:18;54.25;;;22.00;;
77350;SDS011;66420;50.246;14.320;2024-01-06T02:02:04;48.25;;;21.42;;
77350;SDS011;66420;50.246;14.320;2024-01-06T02:04:49;55.97;;;22.08;;
77350;SDS011;66420;50.246;14.320;2024-01-06T02:07:34;50.60;;;20.48;;
77350;SDS011;66420;50.246;14.320;2024-01-06T02:10:18;47.83;;;21.55;;
77350;SDS011;66420;50.246;14.320;2024-01-06T02:13:12;54.70;;;23.80;;
77350;SDS011;66420;50.246;14.320;2024-01-06T02:15:57;52.30;;;22.15;;
77350;SDS011;66420;50.246;14.320;2024-01-06T02:18:41;46.03;;;19.05;;
77350;SDS011;66420;50.246;14.320;2024-01-06T02:21:26;46.60;;;19.45;;
77350;SDS011;66420;50.246;14.320;2024-01-06T02:24:12;50.80;;;20.83;;
77350;SDS011;66420;50.246;14.320;2024-01-06T02:26:56;50.63;;;21.40;;
77350;SDS011;66420;50.246;14.320;2024-01-06T02:29:41;48.40;;;21.63;;
77350;SDS011;66420;50.246;14.320;2024-01-06T02:32:26;57.05;;;21.55;;
77350;SDS011;66420;50.246;14.320;2024-01-06T02:35:11;52.80;;;22.58;;
77350;SDS011;66420;50.246;14.320;2024-01-06T02:37:55;62.97;;;24.45;;
77350;SDS011;66420;50.246;14.320;2024-01-06T02:40:40;53.88;;;21.00;;
77350;SDS011;66420;50.246;14.320;2024-01-06T02:43:25;45.10;;;19.10;;
77350;SDS011;66420;50.246;14.320;2024-01-06T02:46:09;58.50;;;21.98;;
77350;SDS011;66420;50.246;14.320;2024-01-06T02:48:55;62.58;;;22.02;;
77350;SDS011;66420;50.246;14.320;2024-01-06T02:51:39;72.72;;;25.10;;
77350;SDS011;66420;50.246;14.320;2024-01-06T02:54:24;73.38;;;24.67;;
77350;SDS011;66420;50.246;14.320;2024-01-06T02:57:08;65.30;;;22.70;;
77350;SDS011;66420;50.246;14.320;2024-01-06T02:59:53;69.80;;;26.52;;
77350;SDS011;66420;50.246;14.320;2024-01-06T03:02:38;65.57;;;24.00;;
77350;SDS011;66420;50.246;14.320;2024-01-06T03:05:26;73.72;;;24.65;;
77350;SDS011;66420;50.246;14.320;2024-01-06T03:08:11;74.43;;;25.35;;
77350;SDS011;66420;50.246;14.320;2024-01-06T03:10:56;73.07;;;24.35;;
77350;SDS011;66420;50.246;14.320;2024-01-06T03:13:40;72.10;;;25.75;;
77350;SDS011;66420;50.246;14.320;2024-01-06T03:16:25;73.32;;;25.10;;
77350;SDS011;66420;50.246;14.320;2024-01-06T03:19:10;62.78;;;23.45;;
77350;SDS011;66420;50.246;14.320;2024-01-06T03:21:55;67.35;;;22.98;;
77350;SDS011;66420;50.246;14.320;2024-01-06T03:24:39;61.40;;;23.30;;
77350;SDS011;66420;50.246;14.320;2024-01-06T03:27:24;56.58;;;21.05;;
77350;SDS011;66420;50.246;14.320;2024-01-06T03:30:09;59.58;;;21.85;;
77350;SDS011;66420;50.246;14.320;2024-01-06T03:32:55;57.03;;;22.20;;
77350;SDS011;66420;50.246;14.320;2024-01-06T03:35:40;63.10;;;22.02;;
77350;SDS011;66420;50.246;14.320;2024-01-06T03:38:24;64.90;;;22.77;;
77350;SDS011;66420;50.246;14.320;2024-01-06T03:41:09;61.78;;;23.55;;
77350;SDS011;66420;50.246;14.320;2024-01-06T03:43:54;54.08;;;22.40;;
77350;SDS011;66420;50.246;14.320;2024-01-06T03:46:39;58.60;;;22.55;;
77350;SDS011;66420;50.246;14.320;2024-01-06T03:49:24;53.38;;;21.60;;
77350;SDS011;66420;50.246;14.320;2024-01-06T03:52:09;54.45;;;21.73;;
77350;SDS011;66420;50.246;14.320;2024-01-06T03:54:54;57.13;;;21.70;;
77350;SDS011;66420;50.246;14.320;2024-01-06T03:57:38;57.95;;;22.42;;
77350;SDS011;66420;50.246;14.320;2024-01-06T04:00:24;60.05;;;21.80;;
77350;SDS011;66420;50.246;14.320;2024-01-06T04:03:10;60.20;;;22.40;;
77350;SDS011;66420;50.246;14.320;2024-01-06T04:05:54;64.90;;;22.85;;
77350;SDS011;66420;50.246;14.320;2024-01-06T04:08:39;55.97;;;20.77;;
77350;SDS011;66420;50.246;14.320;2024-01-06T04:11:25;60.85;;;22.83;;
77350;SDS011;66420;50.246;14.320;2024-01-06T04:14:09;55.80;;;21.23;;
77350;SDS011;66420;50.246;14.320;2024-01-06T04:16:54;59.90;;;22.33;;
77350;SDS011;66420;50.246;14.320;2024-01-06T04:19:41;60.30;;;22.25;;
77350;SDS011;66420;50.246;14.320;2024-01-06T04:22:25;61.58;;;22.73;;
77350;SDS011;66420;50.246;14.320;2024-01-06T04:25:10;62.95;;;22.25;;
77350;SDS011;66420;50.246;14.320;2024-01-06T04:27:55;66.07;;;21.50;;
77350;SDS011;66420;50.246;14.320;2024-01-06T04:30:39;63.10;;;23.52;;
77350;SDS011;66420;50.246;14.320;2024-01-06T04:33:24;67.05;;;23.20;;
77350;SDS011;66420;50.246;14.320;2024-01-06T04:36:08;69.53;;;22.38;;
77350;SDS011;66420;50.246;14.320;2024-01-06T04:38:53;66.63;;;22.90;;
77350;SDS011;66420;50.246;14.320;2024-01-06T04:41:38;67.72;;;22.40;;
77350;SDS011;66420;50.246;14.320;2024-01-06T04:44:23;78.45;;;24.80;;
77350;SDS011;66420;50.246;14.320;2024-01-06T04:47:07;78.60;;;24.52;;
77350;SDS011;66420;50.246;14.320;2024-01-06T04:49:53;71.10;;;23.27;;
77350;SDS011;66420;50.246;14.320;2024-01-06T04:52:37;63.78;;;21.38;;
77350;SDS011;66420;50.246;14.320;2024-01-06T04:55:22;55.25;;;22.77;;
77350;SDS011;66420;50.246;14.320;2024-01-06T04:58:06;63.40;;;19.67;;
77350;SDS011;66420;50.246;14.320;2024-01-06T05:00:51;53.97;;;20.63;;
77350;SDS011;66420;50.246;14.320;2024-01-06T05:03:36;58.35;;;21.80;;
77350;SDS011;66420;50.246;14.320;2024-01-06T05:06:22;53.03;;;20.75;;
77350;SDS011;66420;50.246;14.320;2024-01-06T05:09:08;49.45;;;19.67;;
77350;SDS011;66420;50.246;14.320;2024-01-06T05:11:53;58.13;;;21.63;;
77350;SDS011;66420;50.246;14.320;2024-01-06T05:14:37;45.58;;;18.15;;
77350;SDS011;66420;50.246;14.320;2024-01-06T05:17:22;54.53;;;18.85;;
77350;SDS011;66420;50.246;14.320;2024-01-06T05:20:07;45.28;;;17.55;;
77350;SDS011;66420;50.246;14.320;2024-01-06T05:22:52;43.00;;;17.70;;
77350;SDS011;66420;50.246;14.320;2024-01-06T05:25:37;48.83;;;18.58;;
77350;SDS011;66420;50.246;14.320;2024-01-06T05:28:22;45.45;;;17.65;;
77350;SDS011;66420;50.246;14.320;2024-01-06T05:31:06;42.28;;;18.35;;
77350;SDS011;66420;50.246;14.320;2024-01-06T05:33:51;46.80;;;19.08;;
77350;SDS011;66420;50.246;14.320;2024-01-06T05:36:35;42.30;;;17.58;;
77350;SDS011;66420;50.246;14.320;2024-01-06T05:39:20;43.17;;;18.88;;
77350;SDS011;66420;50.246;14.320;2024-01-06T05:42:05;45.53;;;20.00;;
77350;SDS011;66420;50.246;14.320;2024-01-06T05:44:50;39.58;;;17.15;;
77350;SDS011;66420;50.246;14.320;2024-01-06T05:47:35;37.05;;;16.95;;
77350;SDS011;66420;50.246;14.320;2024-01-06T05:50:20;36.95;;;16.42;;
77350;SDS011;66420;50.246;14.320;2024-01-06T05:53:04;38.92;;;17.50;;
77350;SDS011;66420;50.246;14.320;2024-01-06T05:55:49;40.92;;;18.65;;
77350;SDS011;66420;50.246;14.320;2024-01-06T05:58:35;36.25;;;17.40;;
77350;SDS011;66420;50.246;14.320;2024-01-06T06:01:20;40.95;;;18.77;;
77350;SDS011;66420;50.246;14.320;2024-01-06T06:04:05;36.22;;;16.70;;
77350;SDS011;66420;50.246;14.320;2024-01-06T06:06:50;43.63;;;17.75;;
77350;SDS011;66420;50.246;14.320;2024-01-06T06:09:35;41.05;;;18.10;;
77350;SDS011;66420;50.246;14.320;2024-01-06T06:12:22;48.25;;;19.42;;
77350;SDS011;66420;50.246;14.320;2024-01-06T06:15:07;48.30;;;20.88;;
77350;SDS011;66420;50.246;14.320;2024-01-06T06:17:52;46.90;;;20.30;;
77350;SDS011;66420;50.246;14.320;2024-01-06T06:20:37;52.15;;;21.50;;
77350;SDS011;66420;50.246;14.320;2024-01-06T06:23:22;49.35;;;19.98;;
77350;SDS011;66420;50.246;14.320;2024-01-06T06:26:08;46.55;;;19.30;;
77350;SDS011;66420;50.246;14.320;2024-01-06T06:28:53;50.33;;;19.55;;
77350;SDS011;66420;50.246;14.320;2024-01-06T06:31:38;48.17;;;20.70;;
77350;SDS011;66420;50.246;14.320;2024-01-06T06:34:23;70.65;;;22.88;;
77350;SDS011;66420;50.246;14.320;2024-01-06T06:37:08;56.95;;;19.63;;
77350;SDS011;66420;50.246;14.320;2024-01-06T06:39:53;77.20;;;25.38;;
77350;SDS011;66420;50.246;14.320;2024-01-06T06:42:38;77.65;;;24.73;;
77350;SDS011;66420;50.246;14.320;2024-01-06T06:45:23;73.18;;;22.45;;
77350;SDS011;66420;50.246;14.320;2024-01-06T06:48:08;78.28;;;23.98;;
77350;SDS011;66420;50.246;14.320;2024-01-06T06:50:53;75.32;;;23.48;;
77350;SDS011;66420;50.246;14.320;2024-01-06T06:53:37;68.97;;;21.98;;
77350;SDS011;66420;50.246;14.320;2024-01-06T06:56:22;66.45;;;21.90;;
77350;SDS011;66420;50.246;14.320;2024-01-06T06:59:06;58.63;;;21.17;;
77350;SDS011;66420;50.246;14.320;2024-01-06T07:01:51;61.38;;;21.00;;
77350;SDS011;66420;50.246;14.320;2024-01-06T07:04:36;55.05;;;19.98;;
77350;SDS011;66420;50.246;14.320;2024-01-06T07:07:21;67.93;;;20.92;;
77350;SDS011;66420;50.246;14.320;2024-01-06T07:10:05;59.13;;;18.23;;
77350;SDS011;66420;50.246;14.320;2024-01-06T07:12:51;64.53;;;20.02;;
77350;SDS011;66420;50.246;14.320;2024-01-06T07:15:36;59.20;;;21.80;;
77350;SDS011;66420;50.246;14.320;2024-01-06T07:18:20;53.42;;;20.50;;
77350;SDS011;66420;50.246;14.320;2024-01-06T07:21:07;56.95;;;19.85;;
77350;SDS011;66420;50.246;14.320;2024-01-06T07:23:52;59.00;;;20.15;;
77350;SDS011;66420;50.246;14.320;2024-01-06T07:26:36;54.13;;;19.55;;
77350;SDS011;66420;50.246;14.320;2024-01-06T07:29:21;48.85;;;18.73;;
77350;SDS011;66420;50.246;14.320;2024-01-06T07:32:06;55.78;;;18.33;;
77350;SDS011;66420;50.246;14.320;2024-01-06T07:34:51;43.95;;;18.08;;
77350;SDS011;66420;50.246;14.320;2024-01-06T07:37:36;52.65;;;18.05;;
77350;SDS011;66420;50.246;14.320;2024-01-06T07:40:20;56.13;;;17.55;;
77350;SDS011;66420;50.246;14.320;2024-01-06T07:43:07;45.60;;;17.00;;
77350;SDS011;66420;50.246;14.320;2024-01-06T07:45:52;50.03;;;18.15;;
77350;SDS011;66420;50.246;14.320;2024-01-06T07:48:37;53.05;;;19.40;;
77350;SDS011;66420;50.246;14.320;2024-01-06T07:51:22;56.90;;;22.88;;
77350;SDS011;66420;50.246;14.320;2024-01-06T07:54:07;52.72;;;19.40;;
77350;SDS011;66420;50.246;14.320;2024-01-06T07:56:53;51.30;;;18.75;;
77350;SDS011;66420;50.246;14.320;2024-01-06T07:59:37;48.90;;;18.15;;
77350;SDS011;66420;50.246;14.320;2024-01-06T08:02:22;49.03;;;17.55;;
77350;SDS011;66420;50.246;14.320;2024-01-06T08:05:06;45.47;;;17.83;;
77350;SDS011;66420;50.246;14.320;2024-01-06T08:07:51;44.83;;;18.58;;
77350;SDS011;66420;50.246;14.320;2024-01-06T08:10:36;41.88;;;17.45;;
77350;SDS011;66420;50.246;14.320;2024-01-06T08:13:21;42.63;;;18.05;;
77350;SDS011;66420;50.246;14.320;2024-01-06T08:16:06;38.45;;;16.80;;
77350;SDS011;66420;50.246;14.320;2024-01-06T08:18:51;44.83;;;17.33;;
77350;SDS011;66420;50.246;14.320;2024-01-06T08:21:35;39.72;;;16.67;;
77350;SDS011;66420;50.246;14.320;2024-01-06T08:24:20;47.03;;;17.02;;
77350;SDS011;66420;50.246;14.320;2024-01-06T08:27:04;50.25;;;19.35;;
77350;SDS011;66420;50.246;14.320;2024-01-06T08:29:49;45.53;;;18.85;;
77350;SDS011;66420;50.246;14.320;2024-01-06T08:32:34;44.03;;;19.08;;
77350;SDS011;66420;50.246;14.320;2024-01-06T08:35:18;45.42;;;19.45;;
77350;SDS011;66420;50.246;14.320;2024-01-06T08:38:03;45.38;;;17.77;;
77350;SDS011;66420;50.246;14.320;2024-01-06T08:40:49;49.13;;;18.35;;
77350;SDS011;66420;50.246;14.320;2024-01-06T08:43:34;46.42;;;18.35;;
77350;SDS011;66420;50.246;14.320;2024-01-06T08:46:18;42.60;;;17.50;;
77350;SDS011;66420;50.246;14.320;2024-01-06T08:49:03;44.83;;;17.55;;
77350;SDS011;66420;50.246;14.320;2024-01-06T08:51:47;47.42;;;19.00;;
77350;SDS011;66420;50.246;14.320;2024-01-06T08:54:32;45.17;;;18.70;;
77350;SDS011;66420;50.246;14.320;2024-01-06T08:57:17;47.00;;;18.08;;
77350;SDS011;66420;50.246;14.320;2024-01-06T09:00:02;45.33;;;18.80;;
77350;SDS011;66420;50.246;14.320;2024-01-06T09:02:48;45.85;;;19.35;;
77350;SDS011;66420;50.246;14.320;2024-01-06T09:05:33;42.97;;;18.25;;
77350;SDS011;66420;50.246;14.320;2024-01-06T09:08:18;45.58;;;17.60;;
77350;SDS011;66420;50.246;14.320;2024-01-06T09:11:03;45.92;;;19.55;;
77350;SDS011;66420;50.246;14.320;2024-01-06T09:13:47;41.58;;;18.15;;
77350;SDS011;66420;50.246;14.320;2024-01-06T09:16:32;49.97;;;19.27;;
77350;SDS011;66420;50.246;14.320;2024-01-06T09:19:16;49.72;;;19.92;;
77350;SDS011;66420;50.246;14.320;2024-01-06T09:22:01;47.90;;;20.23;;
77350;SDS011;66420;50.246;14.320;2024-01-06T09:24:46;53.00;;;20.40;;
77350;SDS011;66420;50.246;14.320;2024-01-06T09:27:30;47.38;;;19.80;;
77350;SDS011;66420;50.246;14.320;2024-01-06T09:30:15;51.60;;;20.58;;
77350;SDS011;66420;50.246;14.320;2024-01-06T09:33:00;53.05;;;20.08;;
77350;SDS011;66420;50.246;14.320;2024-01-06T09:35:45;61.25;;;21.63;;
77350;SDS011;66420;50.246;14.320;2024-01-06T09:38:29;48.78;;;20.00;;
77350;SDS011;66420;50.246;14.320;2024-01-06T09:41:13;57.35;;;20.65;;
77350;SDS011;66420;50.246;14.320;2024-01-06T09:43:58;57.80;;;22.05;;
77350;SDS011;66420;50.246;14.320;2024-01-06T09:46:43;59.55;;;22.23;;
77350;SDS011;66420;50.246;14.320;2024-01-06T09:49:28;54.75;;;20.80;;
77350;SDS011;66420;50.246;14.320;2024-01-06T09:52:17;58.15;;;21.85;;
77350;SDS011;66420;50.246;14.320;2024-01-06T09:55:05;55.70;;;20.42;;
77350;SDS011;66420;50.246;14.320;2024-01-06T09:57:54;67.63;;;24.40;;
77350;SDS011;66420;50.246;14.320;2024-01-06T10:00:39;58.28;;;21.42;;
77350;SDS011;66420;50.246;14.320;2024-01-06T10:03:23;59.65;;;21.88;;
77350;SDS011;66420;50.246;14.320;2024-01-06T10:06:08;60.63;;;21.08;;
77350;SDS011;66420;50.246;14.320;2024-01-06T10:08:53;59.83;;;22.77;;
77350;SDS011;66420;50.246;14.320;2024-01-06T10:11:39;66.38;;;23.65;;
77350;SDS011;66420;50.246;14.320;2024-01-06T10:14:25;70.72;;;23.20;;
77350;SDS011;66420;50.246;14.320;2024-01-06T10:17:09;67.68;;;23.50;;
77350;SDS011;66420;50.246;14.320;2024-01-06T10:19:55;64.45;;;23.52;;
77350;SDS011;66420;50.246;14.320;2024-01-06T10:22:41;64.40;;;22.42;;
77350;SDS011;66420;50.246;14.320;2024-01-06T10:25:27;62.85;;;22.88;;
77350;SDS011;66420;50.246;14.320;2024-01-06T10:28:12;58.90;;;22.88;;
77350;SDS011;66420;50.246;14.320;2024-01-06T10:30:57;58.63;;;22.00;;
77350;SDS011;66420;50.246;14.320;2024-01-06T10:33:42;64.68;;;23.20;;
77350;SDS011;66420;50.246;14.320;2024-01-06T10:36:28;64.57;;;22.63;;
77350;SDS011;66420;50.246;14.320;2024-01-06T10:39:13;67.43;;;23.55;;
77350;SDS011;66420;50.246;14.320;2024-01-06T10:42:00;60.75;;;24.13;;
77350;SDS011;66420;50.246;14.320;2024-01-06T10:44:47;61.10;;;21.58;;
77350;SDS011;66420;50.246;14.320;2024-01-06T10:47:32;61.50;;;21.90;;
77350;SDS011;66420;50.246;14.320;2024-01-06T10:50:19;62.03;;;22.25;;
77350;SDS011;66420;50.246;14.320;2024-01-06T10:53:06;59.25;;;21.80;;
77350;SDS011;66420;50.246;14.320;2024-01-06T10:55:52;60.78;;;21.50;;
77350;SDS011;66420;50.246;14.320;2024-01-06T10:58:37;59.03;;;21.48;;
77350;SDS011;66420;50.246;14.320;2024-01-06T11:01:33;56.90;;;21.08;;
77350;SDS011;66420;50.246;14.320;2024-01-06T11:04:18;53.72;;;21.80;;
77350;SDS011;66420;50.246;14.320;2024-01-06T11:07:05;54.22;;;20.70;;
77350;SDS011;66420;50.246;14.320;2024-01-06T11:12:42;49.33;;;18.77;;
77350;SDS011;66420;50.246;14.320;2024-01-06T11:18:47;46.15;;;19.42;;
77350;SDS011;66420;50.246;14.320;2024-01-06T11:21:35;52.05;;;19.42;;
77350;SDS011;66420;50.246;14.320;2024-01-06T11:24:19;47.80;;;19.10;;
77350;SDS011;66420;50.246;14.320;2024-01-06T11:27:04;47.10;;;16.20;;
77350;SDS011;66420;50.246;14.320;2024-01-06T11:29:53;46.67;;;18.38;;
77350;SDS011;66420;50.246;14.320;2024-01-06T11:32:39;52.47;;;19.75;;
77350;SDS011;66420;50.246;14.320;2024-01-06T11:35:26;51.45;;;18.85;;
77350;SDS011;66420;50.246;14.320;2024-01-06T11:38:12;49.45;;;17.52;;
77350;SDS011;66420;50.246;14.320;2024-01-06T11:40:58;48.63;;;17.88;;
77350;SDS011;66420;50.246;14.320;2024-01-06T11:43:42;47.33;;;17.67;;
77350;SDS011;66420;50.246;14.320;2024-01-06T11:46:27;41.80;;;16.63;;
77350;SDS011;66420;50.246;14.320;2024-01-06T11:49:15;43.75;;;17.70;;
77350;SDS011;66420;50.246;14.320;2024-01-06T11:52:04;52.35;;;18.48;;
77350;SDS011;66420;50.246;14.320;2024-01-06T11:54:49;46.67;;;17.35;;
77350;SDS011;66420;50.246;14.320;2024-01-06T11:57:34;48.05;;;18.05;;
77350;SDS011;66420;50.246;14.320;2024-01-06T12:00:19;46.95;;;18.67;;
77350;SDS011;66420;50.246;14.320;2024-01-06T12:03:04;47.25;;;17.55;;
77350;SDS011;66420;50.246;14.320;2024-01-06T12:06:02;47.70;;;18.40;;
77350;SDS011;66420;50.246;14.320;2024-01-06T12:08:47;42.83;;;17.73;;
77350;SDS011;66420;50.246;14.320;2024-01-06T12:11:32;45.83;;;17.52;;
77350;SDS011;66420;50.246;14.320;2024-01-06T12:14:17;48.05;;;17.38;;
77350;SDS011;66420;50.246;14.320;2024-01-06T12:17:02;44.75;;;16.45;;
77350;SDS011;66420;50.246;14.320;2024-01-06T12:19:48;42.30;;;17.60;;
77350;SDS011;66420;50.246;14.320;2024-01-06T12:22:33;47.95;;;16.58;;
77350;SDS011;66420;50.246;14.320;2024-01-06T12:25:18;45.08;;;16.25;;
77350;SDS011;66420;50.246;14.320;2024-01-06T12:28:05;51.50;;;18.33;;
77350;SDS011;66420;50.246;14.320;2024-01-06T12:30:49;46.30;;;17.65;;
77350;SDS011;66420;50.246;14.320;2024-01-06T12:33:35;50.80;;;17.80;;
77350;SDS011;66420;50.246;14.320;2024-01-06T12:36:21;42.53;;;16.50;;
77350;SDS011;66420;50.246;14.320;2024-01-06T12:39:06;47.42;;;19.17;;
77350;SDS011;66420;50.246;14.320;2024-01-06T12:41:58;49.20;;;17.92;;
77350;SDS011;66420;50.246;14.320;2024-01-06T12:44:45;43.15;;;16.95;;
77350;SDS011;66420;50.246;14.320;2024-01-06T12:47:29;42.67;;;15.40;;
77350;SDS011;66420;50.246;14.320;2024-01-06T12:50:14;38.33;;;15.85;;
77350;SDS011;66420;50.246;14.320;2024-01-06T12:52:58;37.25;;;14.88;;
77350;SDS011;66420;50.246;14.320;2024-01-06T12:55:44;38.35;;;15.13;;
77350;SDS011;66420;50.246;14.320;2024-01-06T12:58:28;42.00;;;15.85;;
77350;SDS011;66420;50.246;14.320;2024-01-06T13:01:13;37.40;;;15.15;;
77350;SDS011;66420;50.246;14.320;2024-01-06T13:03:58;40.83;;;16.08;;
77350;SDS011;66420;50.246;14.320;2024-01-06T13:06:45;42.30;;;15.43;;
77350;SDS011;66420;50.246;14.320;2024-01-06T13:09:29;41.08;;;14.90;;
77350;SDS011;66420;50.246;14.320;2024-01-06T13:12:14;42.70;;;16.95;;
77350;SDS011;66420;50.246;14.320;2024-01-06T13:14:59;41.97;;;15.02;;
77350;SDS011;66420;50.246;14.320;2024-01-06T13:17:45;41.83;;;16.23;;
77350;SDS011;66420;50.246;14.320;2024-01-06T13:20:30;45.88;;;17.17;;
77350;SDS011;66420;50.246;14.320;2024-01-06T13:23:16;44.85;;;17.45;;
77350;SDS011;66420;50.246;14.320;2024-01-06T13:26:02;42.25;;;16.85;;
77350;SDS011;66420;50.246;14.320;2024-01-06T13:28:46;43.22;;;16.85;;
77350;SDS011;66420;50.246;14.320;2024-01-06T13:31:31;37.80;;;15.00;;
77350;SDS011;66420;50.246;14.320;2024-01-06T13:34:16;46.67;;;16.73;;
77350;SDS011;66420;50.246;14.320;2024-01-06T13:37:01;52.72;;;18.35;;
77350;SDS011;66420;50.246;14.320;2024-01-06T13:39:46;45.33;;;16.75;;
77350;SDS011;66420;50.246;14.320;2024-01-06T13:42:31;39.13;;;16.02;;
77350;SDS011;66420;50.246;14.320;2024-01-06T13:45:16;41.83;;;15.52;;
77350;SDS011;66420;50.246;14.320;2024-01-06T13:48:01;37.67;;;14.43;;
77350;SDS011;66420;50.246;14.320;2024-01-06T13:50:46;32.85;;;14.10;;
77350;SDS011;66420;50.246;14.320;2024-01-06T13:53:32;38.08;;;14.45;;
77350;SDS011;66420;50.246;14.320;2024-01-06T13:56:17;37.15;;;15.52;;
77350;SDS011;66420;50.246;14.320;2024-01-06T13:59:02;40.70;;;17.13;;
77350;SDS011;66420;50.246;14.320;2024-01-06T14:01:47;45.55;;;18.15;;
77350;SDS011;66420;50.246;14.320;2024-01-06T14:04:32;48.97;;;17.83;;
77350;SDS011;66420;50.246;14.320;2024-01-06T14:07:16;44.55;;;17.23;;
77350;SDS011;66420;50.246;14.320;2024-01-06T14:10:05;40.63;;;15.23;;
77350;SDS011;66420;50.246;14.320;2024-01-06T14:12:51;40.40;;;15.68;;
77350;SDS011;66420;50.246;14.320;2024-01-06T14:15:35;42.08;;;15.00;;
77350;SDS011;66420;50.246;14.320;2024-01-06T14:18:21;38.72;;;15.88;;
77350;SDS011;66420;50.246;14.320;2024-01-06T14:21:06;46.47;;;16.33;;
77350;SDS011;66420;50.246;14.320;2024-01-06T14:23:51;46.50;;;15.40;;
77350;SDS011;66420;50.246;14.320;2024-01-06T14:26:36;48.03;;;15.02;;
77350;SDS011;66420;50.246;14.320;2024-01-06T14:29:21;37.30;;;15.00;;
77350;SDS011;66420;50.246;14.320;2024-01-06T14:32:06;47.42;;;15.25;;
77350;SDS011;66420;50.246;14.320;2024-01-06T14:34:51;38.25;;;14.70;;
77350;SDS011;66420;50.246;14.320;2024-01-06T14:37:36;39.72;;;15.02;;
77350;SDS011;66420;50.246;14.320;2024-01-06T14:40:21;42.03;;;14.63;;
77350;SDS011;66420;50.246;14.320;2024-01-06T14:43:07;43.50;;;15.15;;
77350;SDS011;66420;50.246;14.320;2024-01-06T14:45:51;44.83;;;14.50;;
77350;SDS011;66420;50.246;14.320;2024-01-06T14:48:36;41.83;;;15.13;;
77350;SDS011;66420;50.246;14.320;2024-01-06T14:51:21;46.78;;;14.93;;
77350;SDS011;66420;50.246;14.320;2024-01-06T14:54:05;39.63;;;14.63;;
77350;SDS011;66420;50.246;14.320;2024-01-06T14:56:52;48.85;;;16.50;;
77350;SDS011;66420;50.246;14.320;2024-01-06T14:59:38;41.03;;;15.35;;
77350;SDS011;66420;50.246;14.320;2024-01-06T15:02:23;42.90;;;16.38;;
77350;SDS011;66420;50.246;14.320;2024-01-06T15:05:09;38.40;;;15.43;;
77350;SDS011;66420;50.246;14.320;2024-01-06T15:07:54;36.65;;;16.05;;
77350;SDS011;66420;50.246;14.320;2024-01-06T15:10:39;38.15;;;14.32;;
77350;SDS011;66420;50.246;14.320;2024-01-06T15:13:23;38.17;;;14.82;;
77350;SDS011;66420;50.246;14.320;2024-01-06T15:16:08;41.22;;;15.65;;
77350;SDS011;66420;50.246;14.320;2024-01-06T15:18:53;38.22;;;14.02;;
77350;SDS011;66420;50.246;14.320;2024-01-06T15:24:27;44.10;;;16.55;;
77350;SDS011;66420;50.246;14.320;2024-01-06T15:27:12;48.47;;;16.42;;
77350;SDS011;66420;50.246;14.320;2024-01-06T15:29:57;45.17;;;16.58;;
77350;SDS011;66420;50.246;14.320;2024-01-06T15:32:42;49.72;;;17.67;;
77350;SDS011;66420;50.246;14.320;2024-01-06T15:35:26;42.85;;;15.88;;
77350;SDS011;66420;50.246;14.320;2024-01-06T15:38:11;40.60;;;17.05;;
77350;SDS011;66420;50.246;14.320;2024-01-06T15:40:56;45.92;;;16.48;;
77350;SDS011;66420;50.246;14.320;2024-01-06T15:43:40;45.22;;;15.75;;
77350;SDS011;66420;50.246;14.320;2024-01-06T15:46:25;53.30;;;17.88;;
77350;SDS011;66420;50.246;14.320;2024-01-06T15:49:11;48.40;;;15.45;;
77350;SDS011;66420;50.246;14.320;2024-01-06T15:51:56;46.80;;;16.55;;
77350;SDS011;66420;50.246;14.320;2024-01-06T15:54:42;46.97;;;15.15;;
77350;SDS011;66420;50.246;14.320;2024-01-06T15:57:27;47.83;;;16.75;;
77350;SDS011;66420;50.246;14.320;2024-01-06T16:00:14;45.80;;;15.27;;